sensor_id;sensor_type;location;lat;lon;timestamp;pressure;altitude;pressure_sealevel;temperature;humidity
63708;BME280;67643;-34.198;22.084;2023-06-22T00:01:06;101276.97;;;14.89;46.74
63708;BME280;67643;-34.198;22.084;2023-06-22T00:03:34;101270.74;;;14.68;46.71
63708;BME280;67643;-34.198;22.084;2023-06-22T00:06:03;101268.69;;;14.60;46.82
63708;BME280;67643;-34.198;22.084;2023-06-22T00:08:32;101266.75;;;14.72;46.92
63708;BME280;67643;-34.198;22.084;2023-06-22T00:11:01;101264.32;;;14.88;46.73
63708;BME280;67643;-34.198;22.084;2023-06-22T00:13:29;101261.82;;;15.16;46.66
63708;BME280;67643;-34.198;22.084;2023-06-22T00:15:57;101259.35;;;14.88;46.63
63708;BME280;67643;-34.198;22.084;2023-06-22T00:18:25;101257.21;;;14.80;46.73
63708;BME280;67643;-34.198;22.084;2023-06-22T00:20:55;101254.76;;;15.11;46.59
63708;BME280;67643;-34.198;22.084;2023-06-22T00:23:24;101256.51;;;14.72;46.72
63708;BME280;67643;-34.198;22.084;2023-06-22T00:25:52;101251.83;;;14.77;46.67
63708;BME280;67643;-34.198;22.084;2023-06-22T00:28:21;101249.18;;;14.75;46.71
63708;BME280;67643;-34.198;22.084;2023-06-22T00:30:50;101245.49;;;14.93;46.36
63708;BME280;67643;-34.198;22.084;2023-06-22T00:33:19;101241.85;;;14.72;46.62
63708;BME280;67643;-34.198;22.084;2023-06-22T00:35:47;101242.24;;;14.64;46.09
63708;BME280;67643;-34.198;22.084;2023-06-22T00:38:16;101246.06;;;14.74;46.47
63708;BME280;67643;-34.198;22.084;2023-06-22T00:40:44;101248.94;;;14.71;46.55
63708;BME280;67643;-34.198;22.084;2023-06-22T00:43:13;101247.70;;;14.50;46.37
63708;BME280;67643;-34.198;22.084;2023-06-22T00:45:41;101242.90;;;14.57;46.21
63708;BME280;67643;-34.198;22.084;2023-06-22T00:48:10;101241.56;;;14.72;46.28
63708;BME280;67643;-34.198;22.084;2023-06-22T00:50:40;101239.68;;;14.71;46.19
63708;BME280;67643;-34.198;22.084;2023-06-22T00:53:10;101231.97;;;14.62;46.27
63708;BME280;67643;-34.198;22.084;2023-06-22T00:55:42;101229.67;;;14.60;46.19
63708;BME280;67643;-34.198;22.084;2023-06-22T00:58:11;101228.87;;;14.57;46.22
63708;BME280;67643;-34.198;22.084;2023-06-22T01:00:40;101225.76;;;14.57;45.96
63708;BME280;67643;-34.198;22.084;2023-06-22T01:03:09;101226.17;;;14.93;45.94
63708;BME280;67643;-34.198;22.084;2023-06-22T01:05:38;101228.10;;;14.79;45.80
63708;BME280;67643;-34.198;22.084;2023-06-22T01:08:16;101228.47;;;14.64;45.84
63708;BME280;67643;-34.198;22.084;2023-06-22T01:10:51;101224.46;;;14.57;46.00
63708;BME280;67643;-34.198;22.084;2023-06-22T01:13:29;101231.49;;;14.70;45.73
63708;BME280;67643;-34.198;22.084;2023-06-22T01:16:05;101231.98;;;14.67;45.74
63708;BME280;67643;-34.198;22.084;2023-06-22T01:18:37;101229.80;;;14.89;45.59
63708;BME280;67643;-34.198;22.084;2023-06-22T01:21:14;101233.56;;;14.93;45.52
63708;BME280;67643;-34.198;22.084;2023-06-22T01:23:59;101235.63;;;14.56;45.66
63708;BME280;67643;-34.198;22.084;2023-06-22T01:26:38;101231.11;;;14.86;45.59
63708;BME280;67643;-34.198;22.084;2023-06-22T01:29:10;101228.91;;;14.85;45.52
63708;BME280;67643;-34.198;22.084;2023-06-22T01:31:40;101228.43;;;14.67;45.92
63708;BME280;67643;-34.198;22.084;2023-06-22T01:34:09;101224.77;;;14.58;46.07
63708;BME280;67643;-34.198;22.084;2023-06-22T01:36:39;101226.41;;;14.65;45.88
63708;BME280;67643;-34.198;22.084;2023-06-22T01:39:09;101227.69;;;14.57;46.00
63708;BME280;67643;-34.198;22.084;2023-06-22T01:41:38;101223.51;;;14.48;46.16
63708;BME280;67643;-34.198;22.084;2023-06-22T01:44:09;101224.31;;;14.53;46.05
63708;BME280;67643;-34.198;22.084;2023-06-22T01:46:39;101222.45;;;14.70;45.87
63708;BME280;67643;-34.198;22.084;2023-06-22T01:49:09;101224.50;;;14.75;45.73
63708;BME280;67643;-34.198;22.084;2023-06-22T01:51:37;101217.76;;;14.60;45.68
63708;BME280;67643;-34.198;22.084;2023-06-22T01:54:07;101216.95;;;14.51;45.77
63708;BME280;67643;-34.198;22.084;2023-06-22T01:56:35;101219.51;;;14.48;45.75
63708;BME280;67643;-34.198;22.084;2023-06-22T01:59:09;101221.34;;;14.82;45.70
63708;BME280;67643;-34.198;22.084;2023-06-22T02:01:44;101215.65;;;14.75;45.66
63708;BME280;67643;-34.198;22.084;2023-06-22T02:04:21;101210.15;;;14.50;46.04
63708;BME280;67643;-34.198;22.084;2023-06-22T02:06:56;101211.02;;;14.72;45.74
63708;BME280;67643;-34.198;22.084;2023-06-22T02:09:29;101212.61;;;14.73;45.69
63708;BME280;67643;-34.198;22.084;2023-06-22T02:12:01;101206.16;;;14.75;45.61
63708;BME280;67643;-34.198;22.084;2023-06-22T02:14:30;101197.09;;;14.70;45.65
63708;BME280;67643;-34.198;22.084;2023-06-22T02:17:00;101194.91;;;14.70;45.67
63708;BME280;67643;-34.198;22.084;2023-06-22T02:19:28;101195.16;;;14.82;45.45
63708;BME280;67643;-34.198;22.084;2023-06-22T02:21:57;101195.92;;;14.90;45.27
63708;BME280;67643;-34.198;22.084;2023-06-22T02:24:25;101189.10;;;14.87;45.29
63708;BME280;67643;-34.198;22.084;2023-06-22T02:26:54;101183.76;;;14.76;45.50
63708;BME280;67643;-34.198;22.084;2023-06-22T02:29:22;101191.17;;;14.51;45.56
63708;BME280;67643;-34.198;22.084;2023-06-22T02:31:51;101191.43;;;15.01;45.56
63708;BME280;67643;-34.198;22.084;2023-06-22T02:34:19;101188.79;;;14.75;45.59
63708;BME280;67643;-34.198;22.084;2023-06-22T02:36:49;101193.00;;;14.66;45.75
63708;BME280;67643;-34.198;22.084;2023-06-22T02:39:19;101190.87;;;14.64;45.79
63708;BME280;67643;-34.198;22.084;2023-06-22T02:41:48;101188.63;;;14.73;45.66
63708;BME280;67643;-34.198;22.084;2023-06-22T02:44:16;101190.00;;;14.70;45.70
63708;BME280;67643;-34.198;22.084;2023-06-22T02:46:45;101183.66;;;14.91;45.39
63708;BME280;67643;-34.198;22.084;2023-06-22T02:49:13;101181.78;;;14.81;45.50
63708;BME280;67643;-34.198;22.084;2023-06-22T02:51:45;101177.10;;;15.01;45.50
63708;BME280;67643;-34.198;22.084;2023-06-22T02:54:14;101177.07;;;14.72;45.56
63708;BME280;67643;-34.198;22.084;2023-06-22T02:56:43;101180.91;;;14.63;45.64
63708;BME280;67643;-34.198;22.084;2023-06-22T02:59:12;101173.51;;;14.87;45.31
63708;BME280;67643;-34.198;22.084;2023-06-22T03:01:40;101168.02;;;14.71;45.40
63708;BME280;67643;-34.198;22.084;2023-06-22T03:04:09;101164.74;;;14.54;45.31
63708;BME280;67643;-34.198;22.084;2023-06-22T03:06:37;101163.96;;;14.71;45.30
63708;BME280;67643;-34.198;22.084;2023-06-22T03:09:05;101165.48;;;14.69;45.36
63708;BME280;67643;-34.198;22.084;2023-06-22T03:11:34;101165.59;;;14.76;45.52
63708;BME280;67643;-34.198;22.084;2023-06-22T03:14:03;101164.42;;;14.97;45.70
63708;BME280;67643;-34.198;22.084;2023-06-22T03:16:31;101159.33;;;15.08;45.88
63708;BME280;67643;-34.198;22.084;2023-06-22T03:19:00;101157.42;;;15.63;46.23
63708;BME280;67643;-34.198;22.084;2023-06-22T03:21:29;101161.84;;;15.50;46.44
63708;BME280;67643;-34.198;22.084;2023-06-22T03:23:58;101163.95;;;15.46;46.70
63708;BME280;67643;-34.198;22.084;2023-06-22T03:26:26;101164.78;;;15.56;46.56
63708;BME280;67643;-34.198;22.084;2023-06-22T03:28:55;101168.33;;;16.07;46.53
63708;BME280;67643;-34.198;22.084;2023-06-22T03:31:24;101164.96;;;16.05;46.75
63708;BME280;67643;-34.198;22.084;2023-06-22T03:33:52;101160.28;;;15.98;46.86
63708;BME280;67643;-34.198;22.084;2023-06-22T03:36:21;101158.74;;;16.05;47.01
63708;BME280;67643;-34.198;22.084;2023-06-22T03:38:51;101159.48;;;15.88;47.11
63708;BME280;67643;-34.198;22.084;2023-06-22T03:41:20;101158.82;;;16.00;46.72
63708;BME280;67643;-34.198;22.084;2023-06-22T03:43:48;101154.66;;;15.74;47.34
63708;BME280;67643;-34.198;22.084;2023-06-22T03:46:17;101151.79;;;16.06;47.26
63708;BME280;67643;-34.198;22.084;2023-06-22T03:48:45;101150.35;;;16.22;47.29
63708;BME280;67643;-34.198;22.084;2023-06-22T03:51:14;101148.93;;;16.28;47.22
63708;BME280;67643;-34.198;22.084;2023-06-22T03:53:42;101143.06;;;15.97;47.30
63708;BME280;67643;-34.198;22.084;2023-06-22T03:56:11;101149.87;;;16.21;47.38
63708;BME280;67643;-34.198;22.084;2023-06-22T03:58:39;101149.92;;;16.13;47.24
63708;BME280;67643;-34.198;22.084;2023-06-22T04:01:08;101150.87;;;16.50;46.99
63708;BME280;67643;-34.198;22.084;2023-06-22T04:03:37;101145.57;;;16.13;47.02
63708;BME280;67643;-34.198;22.084;2023-06-22T04:06:05;101145.97;;;16.13;47.59
63708;BME280;67643;-34.198;22.084;2023-06-22T04:08:34;101143.13;;;16.32;47.47
63708;BME280;67643;-34.198;22.084;2023-06-22T04:11:02;101145.18;;;16.05;47.00
63708;BME280;67643;-34.198;22.084;2023-06-22T04:13:31;101143.91;;;16.00;47.49
63708;BME280;67643;-34.198;22.084;2023-06-22T04:16:00;101140.58;;;16.03;47.39
63708;BME280;67643;-34.198;22.084;2023-06-22T04:18:28;101140.99;;;15.57;47.03
63708;BME280;67643;-34.198;22.084;2023-06-22T04:20:57;101144.18;;;15.49;47.39
63708;BME280;67643;-34.198;22.084;2023-06-22T04:23:25;101148.06;;;15.48;47.05
63708;BME280;67643;-34.198;22.084;2023-06-22T04:25:54;101151.61;;;15.50;46.79
63708;BME280;67643;-34.198;22.084;2023-06-22T04:28:23;101159.17;;;15.32;46.72
63708;BME280;67643;-34.198;22.084;2023-06-22T04:30:52;101160.92;;;15.61;46.42
63708;BME280;67643;-34.198;22.084;2023-06-22T04:33:20;101163.36;;;15.08;46.81
63708;BME280;67643;-34.198;22.084;2023-06-22T04:35:48;101169.49;;;15.10;46.82
63708;BME280;67643;-34.198;22.084;2023-06-22T04:38:17;101170.63;;;14.89;46.30
63708;BME280;67643;-34.198;22.084;2023-06-22T04:40:46;101171.87;;;15.13;46.41
63708;BME280;67643;-34.198;22.084;2023-06-22T04:43:14;101174.86;;;15.16;46.31
63708;BME280;67643;-34.198;22.084;2023-06-22T04:45:42;101167.25;;;15.16;46.13
63708;BME280;67643;-34.198;22.084;2023-06-22T04:48:11;101167.80;;;15.31;46.09
63708;BME280;67643;-34.198;22.084;2023-06-22T04:50:40;101174.70;;;15.17;46.34
63708;BME280;67643;-34.198;22.084;2023-06-22T04:53:08;101172.39;;;15.37;45.96
63708;BME280;67643;-34.198;22.084;2023-06-22T04:55:37;101175.19;;;15.37;45.91
63708;BME280;67643;-34.198;22.084;2023-06-22T04:58:05;101176.29;;;15.31;45.78
63708;BME280;67643;-34.198;22.084;2023-06-22T05:00:34;101180.02;;;15.12;45.97
63708;BME280;67643;-34.198;22.084;2023-06-22T05:03:02;101185.88;;;15.03;45.90
63708;BME280;67643;-34.198;22.084;2023-06-22T05:05:31;101196.61;;;15.02;46.02
63708;BME280;67643;-34.198;22.084;2023-06-22T05:08:01;101200.30;;;15.06;46.06
63708;BME280;67643;-34.198;22.084;2023-06-22T05:10:30;101203.48;;;15.02;46.11
63708;BME280;67643;-34.198;22.084;2023-06-22T05:12:59;101206.22;;;14.70;46.17
63708;BME280;67643;-34.198;22.084;2023-06-22T05:15:27;101210.62;;;14.38;46.02
63708;BME280;67643;-34.198;22.084;2023-06-22T05:17:56;101209.16;;;14.94;45.85
63708;BME280;67643;-34.198;22.084;2023-06-22T05:20:24;101203.21;;;14.88;45.98
63708;BME280;67643;-34.198;22.084;2023-06-22T05:22:53;101198.55;;;14.99;45.89
63708;BME280;67643;-34.198;22.084;2023-06-22T05:25:21;101194.09;;;14.91;46.14
63708;BME280;67643;-34.198;22.084;2023-06-22T05:27:51;101194.66;;;14.82;46.03
63708;BME280;67643;-34.198;22.084;2023-06-22T05:30:19;101196.65;;;15.07;46.62
63708;BME280;67643;-34.198;22.084;2023-06-22T05:32:47;101199.28;;;14.84;46.55
63708;BME280;67643;-34.198;22.084;2023-06-22T05:35:16;101196.02;;;14.78;46.48
63708;BME280;67643;-34.198;22.084;2023-06-22T05:37:44;101193.41;;;15.18;46.48
63708;BME280;67643;-34.198;22.084;2023-06-22T05:40:13;101195.97;;;14.67;46.48
63708;BME280;67643;-34.198;22.084;2023-06-22T05:42:42;101195.06;;;15.03;46.62
63708;BME280;67643;-34.198;22.084;2023-06-22T05:45:11;101191.32;;;14.74;46.11
63708;BME280;67643;-34.198;22.084;2023-06-22T05:47:39;101192.52;;;14.24;46.16
63708;BME280;67643;-34.198;22.084;2023-06-22T05:50:09;101192.22;;;14.72;46.51
63708;BME280;67643;-34.198;22.084;2023-06-22T05:52:37;101196.08;;;14.82;46.06
63708;BME280;67643;-34.198;22.084;2023-06-22T05:55:06;101202.33;;;14.80;45.84
63708;BME280;67643;-34.198;22.084;2023-06-22T05:57:35;101200.82;;;14.73;46.16
63708;BME280;67643;-34.198;22.084;2023-06-22T06:00:05;101203.44;;;14.74;45.12
63708;BME280;67643;-34.198;22.084;2023-06-22T06:02:33;101205.02;;;14.74;45.70
63708;BME280;67643;-34.198;22.084;2023-06-22T06:05:07;101208.21;;;14.85;45.34
63708;BME280;67643;-34.198;22.084;2023-06-22T06:07:36;101209.36;;;14.69;45.05
63708;BME280;67643;-34.198;22.084;2023-06-22T06:10:05;101208.30;;;15.11;45.02
63708;BME280;67643;-34.198;22.084;2023-06-22T06:12:33;101205.77;;;14.97;45.26
63708;BME280;67643;-34.198;22.084;2023-06-22T06:15:02;101204.75;;;14.84;45.24
63708;BME280;67643;-34.198;22.084;2023-06-22T06:17:30;101202.92;;;14.95;45.30
63708;BME280;67643;-34.198;22.084;2023-06-22T06:20:00;101200.97;;;14.78;45.19
63708;BME280;67643;-34.198;22.084;2023-06-22T06:22:29;101201.05;;;15.02;45.09
63708;BME280;67643;-34.198;22.084;2023-06-22T06:24:57;101192.33;;;14.98;45.34
63708;BME280;67643;-34.198;22.084;2023-06-22T06:27:25;101190.54;;;14.80;44.91
63708;BME280;67643;-34.198;22.084;2023-06-22T06:29:55;101189.92;;;14.92;44.97
63708;BME280;67643;-34.198;22.084;2023-06-22T06:32:23;101186.48;;;15.10;44.86
63708;BME280;67643;-34.198;22.084;2023-06-22T06:34:52;101186.32;;;15.23;44.80
63708;BME280;67643;-34.198;22.084;2023-06-22T06:37:20;101189.83;;;15.14;44.98
63708;BME280;67643;-34.198;22.084;2023-06-22T06:39:49;101188.23;;;15.45;44.66
63708;BME280;67643;-34.198;22.084;2023-06-22T06:42:17;101182.03;;;14.95;44.83
63708;BME280;67643;-34.198;22.084;2023-06-22T06:44:45;101174.69;;;15.10;44.70
63708;BME280;67643;-34.198;22.084;2023-06-22T06:47:14;101168.54;;;15.45;44.51
63708;BME280;67643;-34.198;22.084;2023-06-22T06:49:42;101163.12;;;15.53;44.88
63708;BME280;67643;-34.198;22.084;2023-06-22T06:52:11;101163.14;;;15.95;44.87
63708;BME280;67643;-34.198;22.084;2023-06-22T06:54:39;101168.06;;;15.72;45.26
63708;BME280;67643;-34.198;22.084;2023-06-22T06:57:08;101167.27;;;15.83;45.00
63708;BME280;67643;-34.198;22.084;2023-06-22T06:59:36;101167.56;;;15.72;44.90
63708;BME280;67643;-34.198;22.084;2023-06-22T07:02:05;101165.33;;;15.81;44.71
63708;BME280;67643;-34.198;22.084;2023-06-22T07:04:34;101172.93;;;15.81;44.30
63708;BME280;67643;-34.198;22.084;2023-06-22T07:07:03;101169.52;;;15.65;44.68
63708;BME280;67643;-34.198;22.084;2023-06-22T07:09:31;101169.27;;;15.75;44.36
63708;BME280;67643;-34.198;22.084;2023-06-22T07:11:59;101169.66;;;15.83;44.12
63708;BME280;67643;-34.198;22.084;2023-06-22T07:14:28;101175.74;;;15.74;44.08
63708;BME280;67643;-34.198;22.084;2023-06-22T07:16:56;101179.70;;;15.69;44.13
63708;BME280;67643;-34.198;22.084;2023-06-22T07:19:27;101171.21;;;15.90;43.60
63708;BME280;67643;-34.198;22.084;2023-06-22T07:21:55;101166.61;;;15.83;43.47
63708;BME280;67643;-34.198;22.084;2023-06-22T07:24:25;101169.15;;;15.80;43.62
63708;BME280;67643;-34.198;22.084;2023-06-22T07:26:53;101167.34;;;15.94;43.40
63708;BME280;67643;-34.198;22.084;2023-06-22T07:29:22;101170.84;;;15.61;43.34
63708;BME280;67643;-34.198;22.084;2023-06-22T07:31:51;101173.28;;;16.06;43.17
63708;BME280;67643;-34.198;22.084;2023-06-22T07:34:20;101171.07;;;15.95;43.19
63708;BME280;67643;-34.198;22.084;2023-06-22T07:36:48;101176.03;;;16.00;43.18
63708;BME280;67643;-34.198;22.084;2023-06-22T07:39:17;101181.29;;;16.27;42.51
63708;BME280;67643;-34.198;22.084;2023-06-22T07:41:45;101179.97;;;16.19;42.65
63708;BME280;67643;-34.198;22.084;2023-06-22T07:44:13;101181.38;;;16.14;42.84
63708;BME280;67643;-34.198;22.084;2023-06-22T07:46:42;101186.02;;;16.13;42.83
63708;BME280;67643;-34.198;22.084;2023-06-22T07:49:11;101181.93;;;16.13;42.74
63708;BME280;67643;-34.198;22.084;2023-06-22T07:51:39;101187.21;;;15.68;42.79
63708;BME280;67643;-34.198;22.084;2023-06-22T07:54:08;101191.48;;;15.85;42.96
63708;BME280;67643;-34.198;22.084;2023-06-22T07:56:37;101193.23;;;16.02;42.80
63708;BME280;67643;-34.198;22.084;2023-06-22T07:59:06;101197.21;;;15.95;42.94
63708;BME280;67643;-34.198;22.084;2023-06-22T08:01:34;101195.81;;;16.04;43.00
63708;BME280;67643;-34.198;22.084;2023-06-22T08:04:03;101198.18;;;15.99;43.16
63708;BME280;67643;-34.198;22.084;2023-06-22T08:06:32;101203.00;;;16.12;43.04
63708;BME280;67643;-34.198;22.084;2023-06-22T08:09:00;101200.31;;;16.32;43.17
63708;BME280;67643;-34.198;22.084;2023-06-22T08:11:29;101196.40;;;16.15;43.14
63708;BME280;67643;-34.198;22.084;2023-06-22T08:13:57;101205.45;;;16.16;43.02
63708;BME280;67643;-34.198;22.084;2023-06-22T08:16:25;101206.52;;;16.16;43.06
63708;BME280;67643;-34.198;22.084;2023-06-22T08:18:53;101210.31;;;16.18;43.06
63708;BME280;67643;-34.198;22.084;2023-06-22T08:21:22;101210.34;;;16.53;42.91
63708;BME280;67643;-34.198;22.084;2023-06-22T08:23:51;101203.93;;;16.27;42.83
63708;BME280;67643;-34.198;22.084;2023-06-22T08:26:19;101209.52;;;16.30;42.91
63708;BME280;67643;-34.198;22.084;2023-06-22T08:28:48;101207.54;;;16.30;42.93
63708;BME280;67643;-34.198;22.084;2023-06-22T08:31:16;101209.38;;;16.18;43.16
63708;BME280;67643;-34.198;22.084;2023-06-22T08:33:45;101207.34;;;15.93;43.24
63708;BME280;67643;-34.198;22.084;2023-06-22T08:36:14;101207.97;;;15.96;43.17
63708;BME280;67643;-34.198;22.084;2023-06-22T08:38:42;101206.00;;;16.18;43.23
63708;BME280;67643;-34.198;22.084;2023-06-22T08:41:11;101201.24;;;16.06;43.40
63708;BME280;67643;-34.198;22.084;2023-06-22T08:43:39;101203.60;;;15.76;43.46
63708;BME280;67643;-34.198;22.084;2023-06-22T08:46:07;101200.24;;;16.05;43.05
63708;BME280;67643;-34.198;22.084;2023-06-22T08:48:36;101193.60;;;16.29;42.97
63708;BME280;67643;-34.198;22.084;2023-06-22T08:51:05;101201.45;;;16.22;43.06
63708;BME280;67643;-34.198;22.084;2023-06-22T08:53:34;101194.87;;;16.29;42.97
63708;BME280;67643;-34.198;22.084;2023-06-22T08:56:02;101188.86;;;15.89;43.21
63708;BME280;67643;-34.198;22.084;2023-06-22T08:58:32;101190.71;;;16.00;43.07
63708;BME280;67643;-34.198;22.084;2023-06-22T09:01:00;101190.88;;;16.10;42.82
63708;BME280;67643;-34.198;22.084;2023-06-22T09:03:29;101190.67;;;16.36;42.78
63708;BME280;67643;-34.198;22.084;2023-06-22T09:05:57;101190.03;;;16.15;42.73
63708;BME280;67643;-34.198;22.084;2023-06-22T09:08:25;101188.30;;;16.04;42.94
63708;BME280;67643;-34.198;22.084;2023-06-22T09:10:54;101189.39;;;16.11;42.85
63708;BME280;67643;-34.198;22.084;2023-06-22T09:13:22;101179.84;;;16.18;42.69
63708;BME280;67643;-34.198;22.084;2023-06-22T09:15:51;101173.09;;;16.13;42.74
63708;BME280;67643;-34.198;22.084;2023-06-22T09:18:19;101177.48;;;16.34;42.76
63708;BME280;67643;-34.198;22.084;2023-06-22T09:20:47;101171.91;;;16.26;42.56
63708;BME280;67643;-34.198;22.084;2023-06-22T09:23:16;101163.41;;;16.24;42.58
63708;BME280;67643;-34.198;22.084;2023-06-22T09:25:44;101166.51;;;16.28;42.60
63708;BME280;67643;-34.198;22.084;2023-06-22T09:28:12;101162.35;;;16.53;42.59
63708;BME280;67643;-34.198;22.084;2023-06-22T09:30:42;101166.10;;;16.25;42.43
63708;BME280;67643;-34.198;22.084;2023-06-22T09:33:10;101162.25;;;16.45;42.48
63708;BME280;67643;-34.198;22.084;2023-06-22T09:35:40;101158.44;;;16.41;42.64
63708;BME280;67643;-34.198;22.084;2023-06-22T09:38:08;101149.17;;;16.51;42.67
63708;BME280;67643;-34.198;22.084;2023-06-22T09:40:37;101149.66;;;16.59;42.58
63708;BME280;67643;-34.198;22.084;2023-06-22T09:43:05;101146.32;;;16.62;42.62
63708;BME280;67643;-34.198;22.084;2023-06-22T09:45:34;101148.94;;;16.79;42.85
63708;BME280;67643;-34.198;22.084;2023-06-22T09:48:03;101142.45;;;16.44;43.08
63708;BME280;67643;-34.198;22.084;2023-06-22T09:50:31;101132.11;;;16.61;42.88
63708;BME280;67643;-34.198;22.084;2023-06-22T09:53:00;101125.77;;;16.74;42.68
63708;BME280;67643;-34.198;22.084;2023-06-22T09:55:29;101114.39;;;16.84;42.59
63708;BME280;67643;-34.198;22.084;2023-06-22T09:57:57;101115.93;;;17.02;42.40
63708;BME280;67643;-34.198;22.084;2023-06-22T10:00:26;101110.61;;;16.75;42.86
63708;BME280;67643;-34.198;22.084;2023-06-22T10:02:54;101107.49;;;16.75;42.95
63708;BME280;67643;-34.198;22.084;2023-06-22T10:05:23;101103.62;;;16.87;42.81
63708;BME280;67643;-34.198;22.084;2023-06-22T10:07:51;101095.89;;;16.70;43.10
63708;BME280;67643;-34.198;22.084;2023-06-22T10:10:19;101093.36;;;16.78;42.89
63708;BME280;67643;-34.198;22.084;2023-06-22T10:12:55;101094.15;;;16.81;42.75
63708;BME280;67643;-34.198;22.084;2023-06-22T10:15:24;101090.30;;;16.93;42.54
63708;BME280;67643;-34.198;22.084;2023-06-22T10:17:53;101082.68;;;17.29;42.28
63708;BME280;67643;-34.198;22.084;2023-06-22T10:20:21;101081.64;;;17.03;42.12
63708;BME280;67643;-34.198;22.084;2023-06-22T10:22:49;101065.51;;;16.88;42.36
63708;BME280;67643;-34.198;22.084;2023-06-22T10:25:18;101063.27;;;16.90;42.25
63708;BME280;67643;-34.198;22.084;2023-06-22T10:27:46;101062.09;;;17.05;41.89
63708;BME280;67643;-34.198;22.084;2023-06-22T10:30:15;101056.55;;;17.12;41.65
63708;BME280;67643;-34.198;22.084;2023-06-22T10:32:44;101056.54;;;16.88;41.97
63708;BME280;67643;-34.198;22.084;2023-06-22T10:35:12;101061.06;;;16.78;41.57
63708;BME280;67643;-34.198;22.084;2023-06-22T10:37:43;101050.72;;;16.94;41.47
63708;BME280;67643;-34.198;22.084;2023-06-22T10:40:12;101044.60;;;17.07;41.33
63708;BME280;67643;-34.198;22.084;2023-06-22T10:42:41;101036.39;;;17.15;41.10
63708;BME280;67643;-34.198;22.084;2023-06-22T10:45:10;101033.31;;;16.77;41.58
63708;BME280;67643;-34.198;22.084;2023-06-22T10:47:38;101033.75;;;17.01;41.17
63708;BME280;67643;-34.198;22.084;2023-06-22T10:50:08;101027.22;;;17.21;40.72
63708;BME280;67643;-34.198;22.084;2023-06-22T10:52:36;101025.39;;;17.04;41.03
63708;BME280;67643;-34.198;22.084;2023-06-22T10:55:05;101022.54;;;16.99;41.09
63708;BME280;67643;-34.198;22.084;2023-06-22T10:57:34;101014.46;;;16.77;40.90
63708;BME280;67643;-34.198;22.084;2023-06-22T11:00:03;101017.43;;;16.88;41.12
63708;BME280;67643;-34.198;22.084;2023-06-22T11:02:32;101012.79;;;16.85;41.23
63708;BME280;67643;-34.198;22.084;2023-06-22T11:05:01;101013.97;;;17.19;40.60
63708;BME280;67643;-34.198;22.084;2023-06-22T11:07:29;101012.99;;;17.00;40.45
63708;BME280;67643;-34.198;22.084;2023-06-22T11:09:57;101006.22;;;17.09;40.28
63708;BME280;67643;-34.198;22.084;2023-06-22T11:12:26;101006.00;;;16.88;40.63
63708;BME280;67643;-34.198;22.084;2023-06-22T11:14:54;101005.26;;;16.99;40.67
63708;BME280;67643;-34.198;22.084;2023-06-22T11:17:22;100997.11;;;16.80;40.65
63708;BME280;67643;-34.198;22.084;2023-06-22T11:19:51;101000.79;;;17.22;40.36
63708;BME280;67643;-34.198;22.084;2023-06-22T11:22:19;101000.75;;;17.22;40.36
63708;BME280;67643;-34.198;22.084;2023-06-22T11:24:48;100996.18;;;16.96;40.69
63708;BME280;67643;-34.198;22.084;2023-06-22T11:27:16;100990.11;;;17.38;40.12
63708;BME280;67643;-34.198;22.084;2023-06-22T11:29:45;100986.82;;;17.35;40.11
63708;BME280;67643;-34.198;22.084;2023-06-22T11:32:13;100988.69;;;16.94;40.41
63708;BME280;67643;-34.198;22.084;2023-06-22T11:34:41;100976.09;;;17.09;40.22
63708;BME280;67643;-34.198;22.084;2023-06-22T11:37:09;100976.81;;;16.83;40.19
63708;BME280;67643;-34.198;22.084;2023-06-22T11:39:38;100975.17;;;17.70;39.62
63708;BME280;67643;-34.198;22.084;2023-06-22T11:42:08;100972.07;;;16.57;40.60
63708;BME280;67643;-34.198;22.084;2023-06-22T11:44:36;100966.23;;;16.75;40.41
63708;BME280;67643;-34.198;22.084;2023-06-22T11:47:06;100960.87;;;17.76;39.50
63708;BME280;67643;-34.198;22.084;2023-06-22T11:51:53;100954.90;;;17.82;39.93
63708;BME280;67643;-34.198;22.084;2023-06-22T11:54:22;100946.26;;;17.42;39.93
63708;BME280;67643;-34.198;22.084;2023-06-22T11:56:50;100941.65;;;17.19;40.22
63708;BME280;67643;-34.198;22.084;2023-06-22T11:59:19;100934.34;;;17.45;39.75
63708;BME280;67643;-34.198;22.084;2023-06-22T12:01:47;100935.70;;;17.80;39.40
63708;BME280;67643;-34.198;22.084;2023-06-22T12:04:16;100939.32;;;17.23;40.20
63708;BME280;67643;-34.198;22.084;2023-06-22T12:06:44;100938.82;;;17.45;39.93
63708;BME280;67643;-34.198;22.084;2023-06-22T12:09:13;100927.03;;;17.63;39.73
63708;BME280;67643;-34.198;22.084;2023-06-22T12:11:42;100924.52;;;17.84;39.41
63708;BME280;67643;-34.198;22.084;2023-06-22T12:14:10;100921.88;;;17.84;39.46
63708;BME280;67643;-34.198;22.084;2023-06-22T12:16:39;100925.36;;;17.82;39.00
63708;BME280;67643;-34.198;22.084;2023-06-22T12:19:07;100916.16;;;17.38;39.73
63708;BME280;67643;-34.198;22.084;2023-06-22T12:21:36;100910.63;;;17.62;39.48
63708;BME280;67643;-34.198;22.084;2023-06-22T12:24:05;100903.46;;;17.59;39.54
63708;BME280;67643;-34.198;22.084;2023-06-22T12:26:33;100901.30;;;17.67;39.51
63708;BME280;67643;-34.198;22.084;2023-06-22T12:29:02;100904.70;;;17.49;39.71
63708;BME280;67643;-34.198;22.084;2023-06-22T12:31:30;100897.48;;;17.85;39.24
63708;BME280;67643;-34.198;22.084;2023-06-22T12:33:59;100897.43;;;17.76;39.08
63708;BME280;67643;-34.198;22.084;2023-06-22T12:36:27;100891.75;;;17.62;39.50
63708;BME280;67643;-34.198;22.084;2023-06-22T12:38:56;100891.06;;;17.71;39.38
63708;BME280;67643;-34.198;22.084;2023-06-22T12:41:25;100889.29;;;17.79;39.17